sensor_id;sensor_type;location;lat;lon;timestamp;temperature;humidity
27567;DHT22;15006;48.584;9.186;2022-11-27T00:01:33;-3.00;99.90
27567;DHT22;15006;48.584;9.186;2022-11-27T00:04:04;-3.00;99.90
27567;DHT22;15006;48.584;9.186;2022-11-27T00:06:33;-3.10;99.90
27567;DHT22;15006;48.584;9.186;2022-11-27T00:09:04;-3.10;99.90
27567;DHT22;15006;48.584;9.186;2022-11-27T00:11:33;-3.10;99.90
27567;DHT22;15006;48.584;9.186;2022-11-27T00:14:03;-3.10;99.90
27567;DHT22;15006;48.584;9.186;2022-11-27T00:16:32;-3.20;99.90
27567;DHT22;15006;48.584;9.186;2022-11-27T00:19:00;-3.20;99.90
27567;DHT22;15006;48.584;9.186;2022-11-27T00:21:31;-3.20;99.90
27567;DHT22;15006;48.584;9.186;2022-11-27T00:24:02;-3.20;99.90
27567;DHT22;15006;48.584;9.186;2022-11-27T00:26:32;-3.20;99.90
27567;DHT22;15006;48.584;9.186;2022-11-27T00:29:00;-3.20;99.90
27567;DHT22;15006;48.584;9.186;2022-11-27T00:31:31;-3.30;99.90
27567;DHT22;15006;48.584;9.186;2022-11-27T00:34:03;-3.30;99.90
27567;DHT22;15006;48.584;9.186;2022-11-27T00:36:34;-3.30;99.90
27567;DHT22;15006;48.584;9.186;2022-11-27T00:39:02;-3.30;99.90
27567;DHT22;15006;48.584;9.186;2022-11-27T00:41:30;-3.30;99.90
27567;DHT22;15006;48.584;9.186;2022-11-27T00:43:58;-3.30;99.90
27567;DHT22;15006;48.584;9.186;2022-11-27T00:46:32;-3.30;99.90
27567;DHT22;15006;48.584;9.186;2022-11-27T00:49:04;-3.40;99.90
27567;DHT22;15006;48.584;9.186;2022-11-27T00:51:31;-3.40;99.90
27567;DHT22;15006;48.584;9.186;2022-11-27T00:53:57;-3.40;99.90
27567;DHT22;15006;48.584;9.186;2022-11-27T00:56:26;-3.40;99.90
27567;DHT22;15006;48.584;9.186;2022-11-27T00:58:54;-3.40;99.90
27567;DHT22;15006;48.584;9.186;2022-11-27T01:01:32;-3.50;99.90
27567;DHT22;15006;48.584;9.186;2022-11-27T01:04:04;-3.50;99.90
27567;DHT22;15006;48.584;9.186;2022-11-27T01:06:31;-3.50;99.90
27567;DHT22;15006;48.584;9.186;2022-11-27T01:08:58;-3.50;99.90
27567;DHT22;15006;48.584;9.186;2022-11-27T01:11:27;-3.50;99.90
27567;DHT22;15006;48.584;9.186;2022-11-27T01:13:59;-3.40;99.90
27567;DHT22;15006;48.584;9.186;2022-11-27T01:16:30;-3.40;99.90
27567;DHT22;15006;48.584;9.186;2022-11-27T01:18:58;-3.40;99.90
27567;DHT22;15006;48.584;9.186;2022-11-27T01:21:27;-3.40;99.90
27567;DHT22;15006;48.584;9.186;2022-11-27T01:23:54;-3.40;99.90
27567;DHT22;15006;48.584;9.186;2022-11-27T01:26:20;-3.40;99.90
27567;DHT22;15006;48.584;9.186;2022-11-27T01:28:49;-3.40;99.90
27567;DHT22;15006;48.584;9.186;2022-11-27T01:31:19;-3.40;99.90
27567;DHT22;15006;48.584;9.186;2022-11-27T01:33:47;-3.30;99.90
27567;DHT22;15006;48.584;9.186;2022-11-27T01:36:16;-3.30;99.90
27567;DHT22;15006;48.584;9.186;2022-11-27T01:38:42;-3.30;99.90
27567;DHT22;15006;48.584;9.186;2022-11-27T01:41:35;-3.30;99.90
27567;DHT22;15006;48.584;9.186;2022-11-27T01:46:57;-3.30;99.90
27567;DHT22;15006;48.584;9.186;2022-11-27T01:49:43;-3.30;99.90
27567;DHT22;15006;48.584;9.186;2022-11-27T01:52:19;-3.40;99.90
27567;DHT22;15006;48.584;9.186;2022-11-27T01:55:36;-3.40;99.90
27567;DHT22;15006;48.584;9.186;2022-11-27T01:58:00;-3.40;99.90
27567;DHT22;15006;48.584;9.186;2022-11-27T02:00:32;-3.50;99.90
27567;DHT22;15006;48.584;9.186;2022-11-27T02:02:59;-3.50;99.90
27567;DHT22;15006;48.584;9.186;2022-11-27T02:05:28;-3.60;99.90
27567;DHT22;15006;48.584;9.186;2022-11-27T02:07:57;-3.60;99.90
27567;DHT22;15006;48.584;9.186;2022-11-27T02:10:33;-3.60;99.90
27567;DHT22;15006;48.584;9.186;2022-11-27T02:13:08;-3.70;99.90
27567;DHT22;15006;48.584;9.186;2022-11-27T02:15:44;-3.70;99.90
27567;DHT22;15006;48.584;9.186;2022-11-27T02:18:24;-3.80;99.90
27567;DHT22;15006;48.584;9.186;2022-11-27T02:21:10;-3.80;99.90
27567;DHT22;15006;48.584;9.186;2022-11-27T02:23:55;-3.90;99.90
27567;DHT22;15006;48.584;9.186;2022-11-27T02:29:47;-3.90;99.90
27567;DHT22;15006;48.584;9.186;2022-11-27T02:32:28;-4.00;99.90
27567;DHT22;15006;48.584;9.186;2022-11-27T02:35:26;-4.00;99.90
27567;DHT22;15006;48.584;9.186;2022-11-27T02:38:20;-4.00;99.90
27567;DHT22;15006;48.584;9.186;2022-11-27T02:40:53;-4.10;99.90
27567;DHT22;15006;48.584;9.186;2022-11-27T02:43:29;-4.10;99.90
27567;DHT22;15006;48.584;9.186;2022-11-27T02:45:59;-4.20;99.90
27567;DHT22;15006;48.584;9.186;2022-11-27T02:48:31;-4.20;99.90
27567;DHT22;15006;48.584;9.186;2022-11-27T02:51:01;-4.20;99.90
27567;DHT22;15006;48.584;9.186;2022-11-27T02:53:40;-4.20;99.90
27567;DHT22;15006;48.584;9.186;2022-11-27T02:56:13;-4.20;99.90
27567;DHT22;15006;48.584;9.186;2022-11-27T02:58:41;-4.20;99.90
27567;DHT22;15006;48.584;9.186;2022-11-27T03:01:11;-4.20;99.90
27567;DHT22;15006;48.584;9.186;2022-11-27T03:03:44;-4.20;99.90
27567;DHT22;15006;48.584;9.186;2022-11-27T03:06:18;-4.20;99.90
27567;DHT22;15006;48.584;9.186;2022-11-27T03:11:23;-4.30;99.90
27567;DHT22;15006;48.584;9.186;2022-11-27T03:13:53;-4.30;99.90
27567;DHT22;15006;48.584;9.186;2022-11-27T03:21:53;-4.30;99.90
27567;DHT22;15006;48.584;9.186;2022-11-27T03:24:22;-4.30;99.90
27567;DHT22;15006;48.584;9.186;2022-11-27T03:26:48;-4.30;99.90
27567;DHT22;15006;48.584;9.186;2022-11-27T03:29:21;-4.30;99.90
27567;DHT22;15006;48.584;9.186;2022-11-27T03:31:49;-4.30;99.90
27567;DHT22;15006;48.584;9.186;2022-11-27T03:34:17;-4.30;99.90
27567;DHT22;15006;48.584;9.186;2022-11-27T03:36:43;-4.40;99.90
27567;DHT22;15006;48.584;9.186;2022-11-27T03:39:10;-4.40;99.90
27567;DHT22;15006;48.584;9.186;2022-11-27T03:45:02;-4.40;99.90
27567;DHT22;15006;48.584;9.186;2022-11-27T03:48:05;-4.40;99.90
27567;DHT22;15006;48.584;9.186;2022-11-27T03:56:10;-4.40;99.90
27567;DHT22;15006;48.584;9.186;2022-11-27T03:58:50;-4.50;99.90
27567;DHT22;15006;48.584;9.186;2022-11-27T04:01:22;-4.50;99.90
27567;DHT22;15006;48.584;9.186;2022-11-27T04:03:49;-4.50;99.90
27567;DHT22;15006;48.584;9.186;2022-11-27T04:06:15;-4.50;99.90
27567;DHT22;15006;48.584;9.186;2022-11-27T04:08:42;-4.50;99.90
27567;DHT22;15006;48.584;9.186;2022-11-27T04:11:08;-4.60;99.90
27567;DHT22;15006;48.584;9.186;2022-11-27T04:13:34;-4.60;99.90
27567;DHT22;15006;48.584;9.186;2022-11-27T04:16:00;-4.50;99.90
27567;DHT22;15006;48.584;9.186;2022-11-27T04:18:27;-4.60;99.90
27567;DHT22;15006;48.584;9.186;2022-11-27T04:20:53;-4.60;99.90
27567;DHT22;15006;48.584;9.186;2022-11-27T04:23:19;-4.60;99.90
27567;DHT22;15006;48.584;9.186;2022-11-27T04:25:45;-4.60;99.90
27567;DHT22;15006;48.584;9.186;2022-11-27T04:28:11;-4.60;99.90
27567;DHT22;15006;48.584;9.186;2022-11-27T04:30:36;-4.60;99.90
27567;DHT22;15006;48.584;9.186;2022-11-27T04:33:02;-4.60;99.90
27567;DHT22;15006;48.584;9.186;2022-11-27T04:35:28;-4.60;99.90
27567;DHT22;15006;48.584;9.186;2022-11-27T04:37:58;-4.70;99.90
27567;DHT22;15006;48.584;9.186;2022-11-27T04:40:24;-4.70;99.90
27567;DHT22;15006;48.584;9.186;2022-11-27T04:42:50;-4.70;99.90
27567;DHT22;15006;48.584;9.186;2022-11-27T04:45:16;-4.70;99.90
27567;DHT22;15006;48.584;9.186;2022-11-27T04:47:42;-4.80;99.90
27567;DHT22;15006;48.584;9.186;2022-11-27T04:50:09;-4.80;99.90
27567;DHT22;15006;48.584;9.186;2022-11-27T04:52:35;-4.80;99.90
27567;DHT22;15006;48.584;9.186;2022-11-27T04:55:01;-4.80;99.90
27567;DHT22;15006;48.584;9.186;2022-11-27T04:57:28;-4.90;99.90
27567;DHT22;15006;48.584;9.186;2022-11-27T04:59:54;-4.90;99.90
27567;DHT22;15006;48.584;9.186;2022-11-27T05:02:21;-4.90;99.90
27567;DHT22;15006;48.584;9.186;2022-11-27T05:04:47;-4.90;99.90
27567;DHT22;15006;48.584;9.186;2022-11-27T05:07:13;-4.90;99.90
27567;DHT22;15006;48.584;9.186;2022-11-27T05:09:39;-4.90;99.90
27567;DHT22;15006;48.584;9.186;2022-11-27T05:12:05;-4.90;99.90
27567;DHT22;15006;48.584;9.186;2022-11-27T05:14:31;-4.90;99.90
27567;DHT22;15006;48.584;9.186;2022-11-27T05:16:58;-4.90;99.90
27567;DHT22;15006;48.584;9.186;2022-11-27T05:19:27;-4.90;99.90
27567;DHT22;15006;48.584;9.186;2022-11-27T05:21:54;-5.00;99.90
27567;DHT22;15006;48.584;9.186;2022-11-27T05:24:22;-4.90;99.90
27567;DHT22;15006;48.584;9.186;2022-11-27T05:26:51;-5.00;99.90
27567;DHT22;15006;48.584;9.186;2022-11-27T05:29:18;-5.00;99.90
27567;DHT22;15006;48.584;9.186;2022-11-27T05:31:44;-5.00;99.90
27567;DHT22;15006;48.584;9.186;2022-11-27T05:34:11;-5.00;99.90
27567;DHT22;15006;48.584;9.186;2022-11-27T05:36:38;-5.00;99.90
27567;DHT22;15006;48.584;9.186;2022-11-27T05:39:05;-5.00;99.90
27567;DHT22;15006;48.584;9.186;2022-11-27T05:41:33;-5.00;99.90
27567;DHT22;15006;48.584;9.186;2022-11-27T05:44:00;-5.00;99.90
27567;DHT22;15006;48.584;9.186;2022-11-27T05:46:27;-5.00;99.90
27567;DHT22;15006;48.584;9.186;2022-11-27T05:48:53;-5.10;99.90
27567;DHT22;15006;48.584;9.186;2022-11-27T05:51:19;-5.00;99.90
27567;DHT22;15006;48.584;9.186;2022-11-27T05:53:45;-5.00;99.90
27567;DHT22;15006;48.584;9.186;2022-11-27T05:56:13;-5.00;99.90
27567;DHT22;15006;48.584;9.186;2022-11-27T05:58:42;-5.00;99.90
27567;DHT22;15006;48.584;9.186;2022-11-27T06:01:10;-5.10;99.90
27567;DHT22;15006;48.584;9.186;2022-11-27T06:03:37;-5.10;99.90
27567;DHT22;15006;48.584;9.186;2022-11-27T06:08:36;-5.00;99.90
27567;DHT22;15006;48.584;9.186;2022-11-27T06:11:13;-5.00;99.90
27567;DHT22;15006;48.584;9.186;2022-11-27T06:13:41;-5.00;99.90
27567;DHT22;15006;48.584;9.186;2022-11-27T06:16:12;-5.00;99.90
27567;DHT22;15006;48.584;9.186;2022-11-27T06:18:40;-5.00;99.90
27567;DHT22;15006;48.584;9.186;2022-11-27T06:21:11;-5.00;99.90
27567;DHT22;15006;48.584;9.186;2022-11-27T06:23:40;-5.00;99.90
27567;DHT22;15006;48.584;9.186;2022-11-27T06:28:56;-5.00;99.90
27567;DHT22;15006;48.584;9.186;2022-11-27T06:31:25;-5.00;99.90
27567;DHT22;15006;48.584;9.186;2022-11-27T06:33:54;-5.00;99.90
27567;DHT22;15006;48.584;9.186;2022-11-27T06:36:25;-5.00;99.90
27567;DHT22;15006;48.584;9.186;2022-11-27T06:38:53;-5.00;99.90
27567;DHT22;15006;48.584;9.186;2022-11-27T06:41:21;-5.00;99.90
27567;DHT22;15006;48.584;9.186;2022-11-27T06:43:54;-5.00;99.90
27567;DHT22;15006;48.584;9.186;2022-11-27T06:46:22;-5.00;99.90
27567;DHT22;15006;48.584;9.186;2022-11-27T06:48:50;-5.00;99.90
27567;DHT22;15006;48.584;9.186;2022-11-27T06:51:20;-4.90;99.90
27567;DHT22;15006;48.584;9.186;2022-11-27T06:53:51;-4.90;99.90
27567;DHT22;15006;48.584;9.186;2022-11-27T06:56:19;-4.80;99.90
27567;DHT22;15006;48.584;9.186;2022-11-27T06:58:53;-4.70;99.90
27567;DHT22;15006;48.584;9.186;2022-11-27T07:01:21;-4.60;99.90
27567;DHT22;15006;48.584;9.186;2022-11-27T07:03:48;-4.60;99.90
27567;DHT22;15006;48.584;9.186;2022-11-27T07:06:19;-4.50;99.90
27567;DHT22;15006;48.584;9.186;2022-11-27T07:08:47;-4.40;99.90
27567;DHT22;15006;48.584;9.186;2022-11-27T07:11:19;-4.40;99.90
27567;DHT22;15006;48.584;9.186;2022-11-27T07:13:47;-4.40;99.90
27567;DHT22;15006;48.584;9.186;2022-11-27T07:16:14;-4.30;99.90
27567;DHT22;15006;48.584;9.186;2022-11-27T07:18:50;-4.30;99.90
27567;DHT22;15006;48.584;9.186;2022-11-27T07:21:18;-4.30;99.90
27567;DHT22;15006;48.584;9.186;2022-11-27T07:23:44;-4.30;99.90
27567;DHT22;15006;48.584;9.186;2022-11-27T07:26:18;-4.20;99.90
27567;DHT22;15006;48.584;9.186;2022-11-27T07:28:46;-4.10;99.90
27567;DHT22;15006;48.584;9.186;2022-11-27T07:31:19;-4.10;99.90
27567;DHT22;15006;48.584;9.186;2022-11-27T07:33:47;-4.00;99.90
27567;DHT22;15006;48.584;9.186;2022-11-27T07:36:25;-3.90;99.90
27567;DHT22;15006;48.584;9.186;2022-11-27T07:39:05;-3.90;99.90
27567;DHT22;15006;48.584;9.186;2022-11-27T07:41:40;-3.80;99.90
27567;DHT22;15006;48.584;9.186;2022-11-27T07:44:08;-3.70;99.90
27567;DHT22;15006;48.584;9.186;2022-11-27T07:46:37;-3.60;99.90
27567;DHT22;15006;48.584;9.186;2022-11-27T07:49:03;-3.60;99.90
27567;DHT22;15006;48.584;9.186;2022-11-27T07:51:29;-3.50;99.90
27567;DHT22;15006;48.584;9.186;2022-11-27T07:53:55;-3.50;99.90
27567;DHT22;15006;48.584;9.186;2022-11-27T07:56:21;-3.40;99.90
27567;DHT22;15006;48.584;9.186;2022-11-27T07:58:48;-3.30;99.90
27567;DHT22;15006;48.584;9.186;2022-11-27T08:01:17;-3.30;99.90
27567;DHT22;15006;48.584;9.186;2022-11-27T08:03:44;-3.30;99.90
27567;DHT22;15006;48.584;9.186;2022-11-27T08:06:16;-3.20;99.90
27567;DHT22;15006;48.584;9.186;2022-11-27T08:08:43;-3.20;99.90
27567;DHT22;15006;48.584;9.186;2022-11-27T08:11:27;-3.10;99.90
27567;DHT22;15006;48.584;9.186;2022-11-27T08:14:01;-3.00;99.90
27567;DHT22;15006;48.584;9.186;2022-11-27T08:16:29;-2.90;99.90
27567;DHT22;15006;48.584;9.186;2022-11-27T08:18:57;-2.70;99.90
27567;DHT22;15006;48.584;9.186;2022-11-27T08:21:24;-2.60;99.90
27567;DHT22;15006;48.584;9.186;2022-11-27T08:23:50;-2.60;99.90
27567;DHT22;15006;48.584;9.186;2022-11-27T08:26:16;-2.50;99.90
27567;DHT22;15006;48.584;9.186;2022-11-27T08:28:43;-2.40;99.90
27567;DHT22;15006;48.584;9.186;2022-11-27T08:31:11;-2.30;99.90
27567;DHT22;15006;48.584;9.186;2022-11-27T08:33:38;-2.30;99.90
27567;DHT22;15006;48.584;9.186;2022-11-27T08:36:05;-2.20;99.90
27567;DHT22;15006;48.584;9.186;2022-11-27T08:38:31;-2.10;99.90
27567;DHT22;15006;48.584;9.186;2022-11-27T08:40:59;-2.00;99.90
27567;DHT22;15006;48.584;9.186;2022-11-27T08:43:27;-2.00;99.90
27567;DHT22;15006;48.584;9.186;2022-11-27T08:45:54;-1.90;99.90
27567;DHT22;15006;48.584;9.186;2022-11-27T08:48:21;-1.70;99.90
27567;DHT22;15006;48.584;9.186;2022-11-27T08:50:49;-1.60;99.90
27567;DHT22;15006;48.584;9.186;2022-11-27T08:53:16;-1.40;99.90
27567;DHT22;15006;48.584;9.186;2022-11-27T08:55:43;-1.30;99.90
27567;DHT22;15006;48.584;9.186;2022-11-27T08:58:15;-1.20;99.90
27567;DHT22;15006;48.584;9.186;2022-11-27T09:00:41;-1.10;99.90
27567;DHT22;15006;48.584;9.186;2022-11-27T09:03:10;-0.90;99.90
27567;DHT22;15006;48.584;9.186;2022-11-27T09:05:41;-0.80;99.90
27567;DHT22;15006;48.584;9.186;2022-11-27T09:08:08;-0.70;99.90
27567;DHT22;15006;48.584;9.186;2022-11-27T09:10:36;-0.50;99.90
27567;DHT22;15006;48.584;9.186;2022-11-27T09:13:06;-0.40;99.90
27567;DHT22;15006;48.584;9.186;2022-11-27T09:15:50;-0.40;99.90
27567;DHT22;15006;48.584;9.186;2022-11-27T09:24:00;-0.10;99.90
27567;DHT22;15006;48.584;9.186;2022-11-27T09:44:58;0.90;99.90
27567;DHT22;15006;48.584;9.186;2022-11-27T09:47:35;1.10;99.90
27567;DHT22;15006;48.584;9.186;2022-11-27T09:50:13;1.10;99.90
27567;DHT22;15006;48.584;9.186;2022-11-27T09:52:52;1.20;99.90
27567;DHT22;15006;48.584;9.186;2022-11-27T09:55:38;1.30;99.90
27567;DHT22;15006;48.584;9.186;2022-11-27T09:58:19;1.40;99.90
27567;DHT22;15006;48.584;9.186;2022-11-27T10:01:11;1.50;99.90
27567;DHT22;15006;48.584;9.186;2022-11-27T10:03:46;1.70;99.90
27567;DHT22;15006;48.584;9.186;2022-11-27T10:12:46;2.20;99.90
27567;DHT22;15006;48.584;9.186;2022-11-27T10:15:47;2.40;99.90
27567;DHT22;15006;48.584;9.186;2022-11-27T10:18:44;2.60;99.90
27567;DHT22;15006;48.584;9.186;2022-11-27T10:21:26;2.70;99.90
27567;DHT22;15006;48.584;9.186;2022-11-27T10:27:59;3.00;99.90
27567;DHT22;15006;48.584;9.186;2022-11-27T10:30:31;3.10;99.90
27567;DHT22;15006;48.584;9.186;2022-11-27T10:33:23;3.20;99.90
27567;DHT22;15006;48.584;9.186;2022-11-27T10:35:52;3.30;99.90
27567;DHT22;15006;48.584;9.186;2022-11-27T10:38:21;3.50;99.90
27567;DHT22;15006;48.584;9.186;2022-11-27T10:41:36;3.60;99.90
27567;DHT22;15006;48.584;9.186;2022-11-27T10:43:52;3.70;99.90
27567;DHT22;15006;48.584;9.186;2022-11-27T10:46:31;3.80;99.90
27567;DHT22;15006;48.584;9.186;2022-11-27T10:49:02;4.00;99.90
27567;DHT22;15006;48.584;9.186;2022-11-27T10:51:33;4.10;99.90
27567;DHT22;15006;48.584;9.186;2022-11-27T10:54:04;4.20;99.90
27567;DHT22;15006;48.584;9.186;2022-11-27T10:56:55;4.40;99.90
27567;DHT22;15006;48.584;9.186;2022-11-27T11:00:22;4.50;99.40
27567;DHT22;15006;48.584;9.186;2022-11-27T11:02:48;4.60;98.40
27567;DHT22;15006;48.584;9.186;2022-11-27T11:05:24;4.70;99.90
27567;DHT22;15006;48.584;9.186;2022-11-27T11:07:55;4.90;99.90
27567;DHT22;15006;48.584;9.186;2022-11-27T11:10:44;5.00;99.90
27567;DHT22;15006;48.584;9.186;2022-11-27T11:13:22;5.20;99.60
27567;DHT22;15006;48.584;9.186;2022-11-27T11:18:44;5.80;99.90
27567;DHT22;15006;48.584;9.186;2022-11-27T11:21:36;6.30;99.90
27567;DHT22;15006;48.584;9.186;2022-11-27T11:26:48;7.90;99.90
27567;DHT22;15006;48.584;9.186;2022-11-27T11:32:20;9.50;99.90
27567;DHT22;15006;48.584;9.186;2022-11-27T11:35:28;10.50;99.90
27567;DHT22;15006;48.584;9.186;2022-11-27T11:37:57;11.40;97.20
27567;DHT22;15006;48.584;9.186;2022-11-27T11:40:34;12.30;99.90
27567;DHT22;15006;48.584;9.186;2022-11-27T11:43:03;12.90;91.50
27567;DHT22;15006;48.584;9.186;2022-11-27T11:45:33;13.40;92.80
27567;DHT22;15006;48.584;9.186;2022-11-27T11:48:23;13.70;90.40
27567;DHT22;15006;48.584;9.186;2022-11-27T11:51:06;13.90;78.50
27567;DHT22;15006;48.584;9.186;2022-11-27T11:53:40;13.90;73.40
27567;DHT22;15006;48.584;9.186;2022-11-27T11:56:30;13.80;75.70
27567;DHT22;15006;48.584;9.186;2022-11-27T11:59:03;13.40;68.50
27567;DHT22;15006;48.584;9.186;2022-11-27T12:01:49;13.20;71.90
27567;DHT22;15006;48.584;9.186;2022-11-27T12:07:56;12.40;67.60
27567;DHT22;15006;48.584;9.186;2022-11-27T12:19:15;12.00;71.50
27567;DHT22;15006;48.584;9.186;2022-11-27T12:24:59;12.10;69.30
27567;DHT22;15006;48.584;9.186;2022-11-27T12:27:59;12.00;72.70
27567;DHT22;15006;48.584;9.186;2022-11-27T12:31:00;11.90;70.60
27567;DHT22;15006;48.584;9.186;2022-11-27T12:36:48;12.00;75.40
27567;DHT22;15006;48.584;9.186;2022-11-27T12:39:49;12.20;74.00
27567;DHT22;15006;48.584;9.186;2022-11-27T12:42:31;12.50;74.50
27567;DHT22;15006;48.584;9.186;2022-11-27T12:45:20;12.80;76.80
27567;DHT22;15006;48.584;9.186;2022-11-27T12:48:11;13.10;70.10
27567;DHT22;15006;48.584;9.186;2022-11-27T12:50:50;13.30;70.00
27567;DHT22;15006;48.584;9.186;2022-11-27T12:53:58;13.50;73.00
27567;DHT22;15006;48.584;9.186;2022-11-27T12:56:36;13.60;71.90
27567;DHT22;15006;48.584;9.186;2022-11-27T12:59:38;13.70;68.80
27567;DHT22;15006;48.584;9.186;2022-11-27T13:02:28;13.80;67.60
27567;DHT22;15006;48.584;9.186;2022-11-27T13:05:05;13.90;71.90
27567;DHT22;15006;48.584;9.186;2022-11-27T13:08:04;14.20;71.60
27567;DHT22;15006;48.584;9.186;2022-11-27T13:10:42;14.50;70.30
27567;DHT22;15006;48.584;9.186;2022-11-27T13:13:30;14.80;70.80
27567;DHT22;15006;48.584;9.186;2022-11-27T13:19:00;15.10;65.10
27567;DHT22;15006;48.584;9.186;2022-11-27T13:21:58;15.30;70.00
27567;DHT22;15006;48.584;9.186;2022-11-27T13:24:25;15.40;65.80
27567;DHT22;15006;48.584;9.186;2022-11-27T13:27:06;15.30;64.00
27567;DHT22;15006;48.584;9.186;2022-11-27T13:30:05;15.10;60.40
27567;DHT22;15006;48.584;9.186;2022-11-27T13:32:39;14.90;58.80
27567;DHT22;15006;48.584;9.186;2022-11-27T13:35:37;14.70;60.80
27567;DHT22;15006;48.584;9.186;2022-11-27T13:40:46;14.00;60.00
27567;DHT22;15006;48.584;9.186;2022-11-27T13:43:40;13.70;61.80
27567;DHT22;15006;48.584;9.186;2022-11-27T13:46:18;13.30;59.40
27567;DHT22;15006;48.584;9.186;2022-11-27T13:48:52;12.90;61.60
27567;DHT22;15006;48.584;9.186;2022-11-27T13:51:37;12.40;61.20
27567;DHT22;15006;48.584;9.186;2022-11-27T13:56:36;11.60;61.90
27567;DHT22;15006;48.584;9.186;2022-11-27T13:59:31;11.20;63.70
27567;DHT22;15006;48.584;9.186;2022-11-27T14:02:04;10.70;60.70
27567;DHT22;15006;48.584;9.186;2022-11-27T14:04:33;10.30;63.10
27567;DHT22;15006;48.584;9.186;2022-11-27T14:07:05;9.90;64.40
27567;DHT22;15006;48.584;9.186;2022-11-27T14:09:52;9.50;65.30
27567;DHT22;15006;48.584;9.186;2022-11-27T14:12:32;9.10;64.70
27567;DHT22;15006;48.584;9.186;2022-11-27T14:15:19;8.70;66.00
27567;DHT22;15006;48.584;9.186;2022-11-27T14:17:50;8.30;67.50
27567;DHT22;15006;48.584;9.186;2022-11-27T14:20:18;8.00;69.70
27567;DHT22;15006;48.584;9.186;2022-11-27T14:22:56;7.70;70.30
27567;DHT22;15006;48.584;9.186;2022-11-27T14:25:32;7.40;69.70
27567;DHT22;15006;48.584;9.186;2022-11-27T14:30:55;7.00;71.50
27567;DHT22;15006;48.584;9.186;2022-11-27T14:33:27;6.80;73.20
27567;DHT22;15006;48.584;9.186;2022-11-27T14:35:56;6.60;74.30
27567;DHT22;15006;48.584;9.186;2022-11-27T14:38:25;6.50;74.90
27567;DHT22;15006;48.584;9.186;2022-11-27T14:40:53;6.40;75.30
27567;DHT22;15006;48.584;9.186;2022-11-27T14:43:22;6.30;75.90
27567;DHT22;15006;48.584;9.186;2022-11-27T14:45:56;6.10;75.90
27567;DHT22;15006;48.584;9.186;2022-11-27T14:48:25;6.00;76.10
27567;DHT22;15006;48.584;9.186;2022-11-27T14:50:53;5.90;77.20
27567;DHT22;15006;48.584;9.186;2022-11-27T14:53:23;5.80;77.80
27567;DHT22;15006;48.584;9.186;2022-11-27T14:55:54;5.70;77.90
27567;DHT22;15006;48.584;9.186;2022-11-27T14:58:24;5.70;78.10
27567;DHT22;15006;48.584;9.186;2022-11-27T15:00:58;5.60;78.10
27567;DHT22;15006;48.584;9.186;2022-11-27T15:03:26;5.50;78.20
27567;DHT22;15006;48.584;9.186;2022-11-27T15:05:57;5.40;79.20
27567;DHT22;15006;48.584;9.186;2022-11-27T15:08:26;5.30;78.60
27567;DHT22;15006;48.584;9.186;2022-11-27T15:10:55;5.10;79.00
27567;DHT22;15006;48.584;9.186;2022-11-27T15:13:31;5.00;79.00
27567;DHT22;15006;48.584;9.186;2022-11-27T15:16:06;4.90;78.60
27567;DHT22;15006;48.584;9.186;2022-11-27T15:18:47;4.80;79.10
27567;DHT22;15006;48.584;9.186;2022-11-27T15:21:19;4.70;79.60
27567;DHT22;15006;48.584;9.186;2022-11-27T15:23:47;4.60;80.00
27567;DHT22;15006;48.584;9.186;2022-11-27T15:28:59;4.40;79.60
27567;DHT22;15006;48.584;9.186;2022-11-27T15:31:34;4.30;81.10
27567;DHT22;15006;48.584;9.186;2022-11-27T15:36:46;4.20;81.30
27567;DHT22;15006;48.584;9.186;2022-11-27T15:39:17;4.10;82.30
27567;DHT22;15006;48.584;9.186;2022-11-27T15:41:58;4.00;82.30
27567;DHT22;15006;48.584;9.186;2022-11-27T15:44:30;3.90;82.30
27567;DHT22;15006;48.584;9.186;2022-11-27T15:46:59;3.80;83.00
27567;DHT22;15006;48.584;9.186;2022-11-27T15:49:26;3.80;83.00
27567;DHT22;15006;48.584;9.186;2022-11-27T15:51:54;3.70;83.20
27567;DHT22;15006;48.584;9.186;2022-11-27T15:54:21;3.70;83.10
27567;DHT22;15006;48.584;9.186;2022-11-27T15:56:47;3.70;83.20
27567;DHT22;15006;48.584;9.186;2022-11-27T15:59:14;3.60;82.40
27567;DHT22;15006;48.584;9.186;2022-11-27T16:01:41;3.60;81.60
27567;DHT22;15006;48.584;9.186;2022-11-27T16:04:08;3.50;81.30
27567;DHT22;15006;48.584;9.186;2022-11-27T16:06:35;3.50;81.20
27567;DHT22;15006;48.584;9.186;2022-11-27T16:09:03;3.50;80.70
27567;DHT22;15006;48.584;9.186;2022-11-27T16:11:30;3.40;80.40
27567;DHT22;15006;48.584;9.186;2022-11-27T16:13:57;3.40;79.60
27567;DHT22;15006;48.584;9.186;2022-11-27T16:16:24;3.30;80.00
27567;DHT22;15006;48.584;9.186;2022-11-27T16:18:50;3.40;80.50
27567;DHT22;15006;48.584;9.186;2022-11-27T16:21:16;3.30;80.80
27567;DHT22;15006;48.584;9.186;2022-11-27T16:23:43;3.30;81.00
27567;DHT22;15006;48.584;9.186;2022-11-27T16:26:11;3.30;81.10
27567;DHT22;15006;48.584;9.186;2022-11-27T16:28:38;3.30;81.40
27567;DHT22;15006;48.584;9.186;2022-11-27T16:31:07;3.30;82.00
27567;DHT22;15006;48.584;9.186;2022-11-27T16:33:35;3.20;82.10
27567;DHT22;15006;48.584;9.186;2022-11-27T16:36:06;3.20;82.70
27567;DHT22;15006;48.584;9.186;2022-11-27T16:38:34;3.20;82.30
27567;DHT22;15006;48.584;9.186;2022-11-27T16:41:02;3.20;82.80
27567;DHT22;15006;48.584;9.186;2022-11-27T16:43:35;3.10;82.80
27567;DHT22;15006;48.584;9.186;2022-11-27T16:46:11;3.10;82.70
27567;DHT22;15006;48.584;9.186;2022-11-27T16:48:40;3.00;82.50
27567;DHT22;15006;48.584;9.186;2022-11-27T16:51:10;3.00;82.50
27567;DHT22;15006;48.584;9.186;2022-11-27T16:53:41;3.00;82.90
27567;DHT22;15006;48.584;9.186;2022-11-27T16:56:10;2.90;83.20
27567;DHT22;15006;48.584;9.186;2022-11-27T16:58:39;2.90;82.70
27567;DHT22;15006;48.584;9.186;2022-11-27T17:01:12;2.90;82.60
27567;DHT22;15006;48.584;9.186;2022-11-27T17:03:40;2.90;82.60
27567;DHT22;15006;48.584;9.186;2022-11-27T17:06:15;2.80;83.10
27567;DHT22;15006;48.584;9.186;2022-11-27T17:08:43;2.80;83.10
27567;DHT22;15006;48.584;9.186;2022-11-27T17:11:12;2.80;83.00
27567;DHT22;15006;48.584;9.186;2022-11-27T17:13:40;2.70;83.40
27567;DHT22;15006;48.584;9.186;2022-11-27T17:16:07;2.70;84.00
27567;DHT22;15006;48.584;9.186;2022-11-27T17:18:38;2.70;84.20
27567;DHT22;15006;48.584;9.186;2022-11-27T17:21:06;2.70;84.10
27567;DHT22;15006;48.584;9.186;2022-11-27T17:23:33;2.70;81.90
27567;DHT22;15006;48.584;9.186;2022-11-27T17:26:10;2.70;84.20
27567;DHT22;15006;48.584;9.186;2022-11-27T17:28:37;2.60;83.30
27567;DHT22;15006;48.584;9.186;2022-11-27T17:31:18;2.60;84.50
27567;DHT22;15006;48.584;9.186;2022-11-27T17:33:46;2.60;83.60
27567;DHT22;15006;48.584;9.186;2022-11-27T17:36:13;2.60;84.60
27567;DHT22;15006;48.584;9.186;2022-11-27T17:38:39;2.50;84.80
27567;DHT22;15006;48.584;9.186;2022-11-27T17:41:09;2.50;85.00
27567;DHT22;15006;48.584;9.186;2022-11-27T17:43:37;2.50;85.10
27567;DHT22;15006;48.584;9.186;2022-11-27T17:46:18;2.50;85.40
27567;DHT22;15006;48.584;9.186;2022-11-27T17:48:51;2.40;85.50
27567;DHT22;15006;48.584;9.186;2022-11-27T17:51:19;2.40;86.00
27567;DHT22;15006;48.584;9.186;2022-11-27T17:53:46;2.30;86.80
27567;DHT22;15006;48.584;9.186;2022-11-27T17:56:15;2.20;86.30